sensor_id;sensor_type;location;lat;lon;timestamp;P1;durP1;ratioP1;P2;durP2;ratioP2
80320;SDS011;69633;47.066;15.450;2024-02-21T00:01:21;8.18;;;3.00;;
80320;SDS011;69633;47.066;15.450;2024-02-21T00:03:51;7.35;;;3.33;;
80320;SDS011;69633;47.066;15.450;2024-02-21T00:06:17;9.10;;;3.58;;
80320;SDS011;69633;47.066;15.450;2024-02-21T00:08:43;6.18;;;3.15;;
80320;SDS011;69633;47.066;15.450;2024-02-21T00:11:19;6.70;;;3.38;;
80320;SDS011;69633;47.066;15.450;2024-02-21T00:13:47;5.75;;;2.80;;
80320;SDS011;69633;47.066;15.450;2024-02-21T00:16:14;10.63;;;3.55;;
80320;SDS011;69633;47.066;15.450;2024-02-21T00:18:43;8.75;;;3.58;;
80320;SDS011;69633;47.066;15.450;2024-02-21T00:21:10;7.95;;;3.50;;
80320;SDS011;69633;47.066;15.450;2024-02-21T00:23:41;8.15;;;3.53;;
80320;SDS011;69633;47.066;15.450;2024-02-21T00:26:08;8.15;;;3.22;;
80320;SDS011;69633;47.066;15.450;2024-02-21T00:28:33;6.95;;;2.50;;
80320;SDS011;69633;47.066;15.450;2024-02-21T00:30:58;5.18;;;3.15;;
80320;SDS011;69633;47.066;15.450;2024-02-21T00:33:25;6.40;;;3.20;;
80320;SDS011;69633;47.066;15.450;2024-02-21T00:35:52;9.88;;;3.78;;
80320;SDS011;69633;47.066;15.450;2024-02-21T00:38:19;11.45;;;3.50;;
80320;SDS011;69633;47.066;15.450;2024-02-21T00:40:45;6.88;;;3.13;;
80320;SDS011;69633;47.066;15.450;2024-02-21T00:43:11;6.90;;;3.13;;
80320;SDS011;69633;47.066;15.450;2024-02-21T00:45:37;9.15;;;3.63;;
80320;SDS011;69633;47.066;15.450;2024-02-21T00:48:04;8.23;;;3.35;;
80320;SDS011;69633;47.066;15.450;2024-02-21T00:52:59;6.38;;;2.97;;
80320;SDS011;69633;47.066;15.450;2024-02-21T00:55:24;6.55;;;3.38;;
80320;SDS011;69633;47.066;15.450;2024-02-21T00:57:52;6.03;;;3.17;;
80320;SDS011;69633;47.066;15.450;2024-02-21T01:00:17;6.00;;;2.83;;
80320;SDS011;69633;47.066;15.450;2024-02-21T01:02:43;7.57;;;2.88;;
80320;SDS011;69633;47.066;15.450;2024-02-21T01:05:10;7.05;;;3.13;;
80320;SDS011;69633;47.066;15.450;2024-02-21T01:07:38;7.75;;;3.13;;
80320;SDS011;69633;47.066;15.450;2024-02-21T01:10:03;7.50;;;2.67;;
80320;SDS011;69633;47.066;15.450;2024-02-21T01:12:29;6.90;;;3.35;;
80320;SDS011;69633;47.066;15.450;2024-02-21T01:14:56;7.80;;;3.22;;
80320;SDS011;69633;47.066;15.450;2024-02-21T01:17:24;11.27;;;4.22;;
80320;SDS011;69633;47.066;15.450;2024-02-21T01:19:52;9.50;;;3.83;;
80320;SDS011;69633;47.066;15.450;2024-02-21T01:22:18;11.13;;;4.05;;
80320;SDS011;69633;47.066;15.450;2024-02-21T01:24:43;9.45;;;3.97;;
80320;SDS011;69633;47.066;15.450;2024-02-21T01:27:10;6.68;;;3.28;;
80320;SDS011;69633;47.066;15.450;2024-02-21T01:29:36;9.88;;;3.50;;
80320;SDS011;69633;47.066;15.450;2024-02-21T01:32:03;7.93;;;2.92;;
80320;SDS011;69633;47.066;15.450;2024-02-21T01:34:30;8.13;;;3.40;;
80320;SDS011;69633;47.066;15.450;2024-02-21T01:36:57;4.32;;;2.33;;
80320;SDS011;69633;47.066;15.450;2024-02-21T01:39:22;5.55;;;2.22;;
80320;SDS011;69633;47.066;15.450;2024-02-21T01:41:49;6.45;;;3.05;;
80320;SDS011;69633;47.066;15.450;2024-02-21T01:44:16;8.30;;;3.20;;
80320;SDS011;69633;47.066;15.450;2024-02-21T01:46:42;7.60;;;2.75;;
80320;SDS011;69633;47.066;15.450;2024-02-21T01:49:08;6.00;;;2.85;;
80320;SDS011;69633;47.066;15.450;2024-02-21T01:51:35;6.13;;;2.70;;
80320;SDS011;69633;47.066;15.450;2024-02-21T01:54:02;5.68;;;2.72;;
80320;SDS011;69633;47.066;15.450;2024-02-21T01:56:28;5.65;;;2.50;;
80320;SDS011;69633;47.066;15.450;2024-02-21T01:58:57;7.80;;;3.05;;
80320;SDS011;69633;47.066;15.450;2024-02-21T02:01:24;8.85;;;3.15;;
80320;SDS011;69633;47.066;15.450;2024-02-21T02:03:50;6.47;;;2.75;;
80320;SDS011;69633;47.066;15.450;2024-02-21T02:06:17;12.30;;;2.97;;
80320;SDS011;69633;47.066;15.450;2024-02-21T02:08:42;7.10;;;2.80;;
80320;SDS011;69633;47.066;15.450;2024-02-21T02:11:09;7.22;;;2.70;;
80320;SDS011;69633;47.066;15.450;2024-02-21T02:13:36;8.52;;;2.75;;
80320;SDS011;69633;47.066;15.450;2024-02-21T02:16:01;9.57;;;3.10;;
80320;SDS011;69633;47.066;15.450;2024-02-21T02:18:28;4.60;;;3.00;;
80320;SDS011;69633;47.066;15.450;2024-02-21T02:20:55;7.13;;;2.50;;
80320;SDS011;69633;47.066;15.450;2024-02-21T02:26:07;8.68;;;3.70;;
80320;SDS011;69633;47.066;15.450;2024-02-21T02:28:33;7.32;;;3.00;;
80320;SDS011;69633;47.066;15.450;2024-02-21T02:30:58;8.13;;;3.95;;
80320;SDS011;69633;47.066;15.450;2024-02-21T02:33:24;8.73;;;3.85;;
80320;SDS011;69633;47.066;15.450;2024-02-21T02:35:49;10.10;;;3.50;;
80320;SDS011;69633;47.066;15.450;2024-02-21T02:38:16;8.90;;;4.25;;
80320;SDS011;69633;47.066;15.450;2024-02-21T02:40:43;6.55;;;3.35;;
80320;SDS011;69633;47.066;15.450;2024-02-21T02:43:09;6.20;;;3.58;;
80320;SDS011;69633;47.066;15.450;2024-02-21T02:45:35;4.35;;;2.30;;
80320;SDS011;69633;47.066;15.450;2024-02-21T02:48:01;5.28;;;2.58;;
80320;SDS011;69633;47.066;15.450;2024-02-21T02:50:27;5.20;;;2.17;;
80320;SDS011;69633;47.066;15.450;2024-02-21T02:52:53;8.00;;;3.65;;
80320;SDS011;69633;47.066;15.450;2024-02-21T02:55:19;8.90;;;3.70;;
80320;SDS011;69633;47.066;15.450;2024-02-21T02:57:44;8.45;;;3.60;;
80320;SDS011;69633;47.066;15.450;2024-02-21T03:00:10;9.27;;;2.90;;
80320;SDS011;69633;47.066;15.450;2024-02-21T03:02:37;7.47;;;3.20;;
80320;SDS011;69633;47.066;15.450;2024-02-21T03:05:11;7.63;;;3.55;;
80320;SDS011;69633;47.066;15.450;2024-02-21T03:07:42;9.02;;;3.20;;
80320;SDS011;69633;47.066;15.450;2024-02-21T03:10:10;7.32;;;2.63;;
80320;SDS011;69633;47.066;15.450;2024-02-21T03:12:36;6.47;;;2.97;;
80320;SDS011;69633;47.066;15.450;2024-02-21T03:15:02;6.55;;;3.30;;
80320;SDS011;69633;47.066;15.450;2024-02-21T03:17:28;6.43;;;2.67;;
80320;SDS011;69633;47.066;15.450;2024-02-21T03:19:54;6.25;;;2.58;;
80320;SDS011;69633;47.066;15.450;2024-02-21T03:22:20;6.32;;;2.67;;
80320;SDS011;69633;47.066;15.450;2024-02-21T03:24:46;5.82;;;2.45;;
80320;SDS011;69633;47.066;15.450;2024-02-21T03:27:12;6.30;;;2.88;;
80320;SDS011;69633;47.066;15.450;2024-02-21T03:29:37;5.05;;;2.42;;
80320;SDS011;69633;47.066;15.450;2024-02-21T03:32:04;7.47;;;2.95;;
80320;SDS011;69633;47.066;15.450;2024-02-21T03:34:30;4.35;;;2.45;;
80320;SDS011;69633;47.066;15.450;2024-02-21T03:36:55;7.13;;;3.30;;
80320;SDS011;69633;47.066;15.450;2024-02-21T03:39:20;6.00;;;2.72;;
80320;SDS011;69633;47.066;15.450;2024-02-21T03:41:46;5.60;;;2.20;;
80320;SDS011;69633;47.066;15.450;2024-02-21T03:44:12;4.00;;;2.42;;
80320;SDS011;69633;47.066;15.450;2024-02-21T03:46:37;6.45;;;3.22;;
80320;SDS011;69633;47.066;15.450;2024-02-21T03:49:03;4.93;;;2.40;;
80320;SDS011;69633;47.066;15.450;2024-02-21T03:51:28;4.68;;;2.75;;
80320;SDS011;69633;47.066;15.450;2024-02-21T03:53:56;5.10;;;2.72;;
80320;SDS011;69633;47.066;15.450;2024-02-21T03:56:22;5.40;;;2.15;;
80320;SDS011;69633;47.066;15.450;2024-02-21T03:58:49;7.97;;;2.47;;
80320;SDS011;69633;47.066;15.450;2024-02-21T04:01:15;6.25;;;3.05;;
80320;SDS011;69633;47.066;15.450;2024-02-21T04:03:41;5.25;;;2.25;;
80320;SDS011;69633;47.066;15.450;2024-02-21T04:06:08;5.40;;;2.22;;
80320;SDS011;69633;47.066;15.450;2024-02-21T04:08:33;5.88;;;2.90;;
80320;SDS011;69633;47.066;15.450;2024-02-21T04:10:59;8.70;;;2.67;;
80320;SDS011;69633;47.066;15.450;2024-02-21T04:13:24;3.95;;;2.50;;
80320;SDS011;69633;47.066;15.450;2024-02-21T04:15:50;8.82;;;2.72;;
80320;SDS011;69633;47.066;15.450;2024-02-21T04:18:16;4.40;;;1.98;;
80320;SDS011;69633;47.066;15.450;2024-02-21T04:20:41;5.55;;;2.58;;
80320;SDS011;69633;47.066;15.450;2024-02-21T04:23:08;4.90;;;2.67;;
80320;SDS011;69633;47.066;15.450;2024-02-21T04:25:34;6.55;;;2.45;;
80320;SDS011;69633;47.066;15.450;2024-02-21T04:27:59;5.95;;;2.70;;
80320;SDS011;69633;47.066;15.450;2024-02-21T04:30:25;6.10;;;2.63;;
80320;SDS011;69633;47.066;15.450;2024-02-21T04:32:51;4.70;;;2.97;;
80320;SDS011;69633;47.066;15.450;2024-02-21T04:35:16;5.88;;;2.35;;
80320;SDS011;69633;47.066;15.450;2024-02-21T04:37:43;5.43;;;2.30;;
80320;SDS011;69633;47.066;15.450;2024-02-21T04:40:10;5.43;;;2.67;;
80320;SDS011;69633;47.066;15.450;2024-02-21T04:42:36;5.53;;;2.45;;
80320;SDS011;69633;47.066;15.450;2024-02-21T04:45:01;6.63;;;2.65;;
80320;SDS011;69633;47.066;15.450;2024-02-21T04:47:29;8.77;;;2.85;;
80320;SDS011;69633;47.066;15.450;2024-02-21T04:49:54;5.40;;;2.83;;
80320;SDS011;69633;47.066;15.450;2024-02-21T04:52:20;4.50;;;2.55;;
80320;SDS011;69633;47.066;15.450;2024-02-21T04:54:46;5.47;;;2.42;;
80320;SDS011;69633;47.066;15.450;2024-02-21T04:57:12;4.47;;;2.83;;
80320;SDS011;69633;47.066;15.450;2024-02-21T04:59:41;5.38;;;2.42;;
80320;SDS011;69633;47.066;15.450;2024-02-21T05:02:08;6.03;;;2.40;;
80320;SDS011;69633;47.066;15.450;2024-02-21T05:04:34;5.72;;;2.40;;
80320;SDS011;69633;47.066;15.450;2024-02-21T05:06:59;5.05;;;2.30;;
80320;SDS011;69633;47.066;15.450;2024-02-21T05:09:26;7.82;;;2.92;;
80320;SDS011;69633;47.066;15.450;2024-02-21T05:11:52;6.10;;;2.67;;
80320;SDS011;69633;47.066;15.450;2024-02-21T05:14:18;6.20;;;3.10;;
80320;SDS011;69633;47.066;15.450;2024-02-21T05:16:43;4.70;;;2.90;;
80320;SDS011;69633;47.066;15.450;2024-02-21T05:19:10;5.03;;;2.03;;
80320;SDS011;69633;47.066;15.450;2024-02-21T05:21:36;6.85;;;3.10;;
80320;SDS011;69633;47.066;15.450;2024-02-21T05:24:02;6.45;;;2.53;;
80320;SDS011;69633;47.066;15.450;2024-02-21T05:26:28;6.28;;;2.65;;
80320;SDS011;69633;47.066;15.450;2024-02-21T05:28:55;5.38;;;2.50;;
80320;SDS011;69633;47.066;15.450;2024-02-21T05:31:22;5.47;;;2.35;;
80320;SDS011;69633;47.066;15.450;2024-02-21T05:33:48;7.50;;;2.33;;
80320;SDS011;69633;47.066;15.450;2024-02-21T05:36:13;9.07;;;2.72;;
80320;SDS011;69633;47.066;15.450;2024-02-21T05:38:39;8.55;;;2.70;;
80320;SDS011;69633;47.066;15.450;2024-02-21T05:41:04;8.50;;;2.50;;
80320;SDS011;69633;47.066;15.450;2024-02-21T05:43:30;6.43;;;2.35;;
80320;SDS011;69633;47.066;15.450;2024-02-21T05:45:57;6.15;;;2.97;;
80320;SDS011;69633;47.066;15.450;2024-02-21T05:48:23;4.88;;;2.20;;
80320;SDS011;69633;47.066;15.450;2024-02-21T05:50:50;8.43;;;2.47;;
80320;SDS011;69633;47.066;15.450;2024-02-21T05:53:16;7.10;;;2.92;;
80320;SDS011;69633;47.066;15.450;2024-02-21T05:55:42;5.20;;;2.45;;
80320;SDS011;69633;47.066;15.450;2024-02-21T05:58:08;7.05;;;2.65;;
80320;SDS011;69633;47.066;15.450;2024-02-21T06:00:38;9.52;;;2.88;;
80320;SDS011;69633;47.066;15.450;2024-02-21T06:03:05;6.78;;;2.75;;
80320;SDS011;69633;47.066;15.450;2024-02-21T06:05:36;9.40;;;3.22;;
80320;SDS011;69633;47.066;15.450;2024-02-21T06:08:03;10.88;;;3.00;;
80320;SDS011;69633;47.066;15.450;2024-02-21T06:10:29;7.07;;;2.40;;
80320;SDS011;69633;47.066;15.450;2024-02-21T06:12:55;9.23;;;2.85;;
80320;SDS011;69633;47.066;15.450;2024-02-21T06:15:20;6.63;;;2.22;;
80320;SDS011;69633;47.066;15.450;2024-02-21T06:17:47;12.35;;;3.05;;
80320;SDS011;69633;47.066;15.450;2024-02-21T06:20:12;7.00;;;2.83;;
80320;SDS011;69633;47.066;15.450;2024-02-21T06:22:39;6.93;;;2.83;;
80320;SDS011;69633;47.066;15.450;2024-02-21T06:25:05;11.02;;;2.95;;
80320;SDS011;69633;47.066;15.450;2024-02-21T06:27:31;6.50;;;2.97;;
80320;SDS011;69633;47.066;15.450;2024-02-21T06:29:58;6.63;;;3.05;;
80320;SDS011;69633;47.066;15.450;2024-02-21T06:32:23;9.30;;;3.28;;
80320;SDS011;69633;47.066;15.450;2024-02-21T06:34:48;5.43;;;2.78;;
80320;SDS011;69633;47.066;15.450;2024-02-21T06:37:14;9.95;;;3.03;;
80320;SDS011;69633;47.066;15.450;2024-02-21T06:39:41;6.20;;;2.63;;
80320;SDS011;69633;47.066;15.450;2024-02-21T06:42:06;9.05;;;2.63;;
80320;SDS011;69633;47.066;15.450;2024-02-21T06:44:33;4.63;;;2.55;;
80320;SDS011;69633;47.066;15.450;2024-02-21T06:47:05;6.80;;;2.28;;
80320;SDS011;69633;47.066;15.450;2024-02-21T06:49:31;4.40;;;2.00;;
80320;SDS011;69633;47.066;15.450;2024-02-21T06:51:56;4.75;;;2.22;;
80320;SDS011;69633;47.066;15.450;2024-02-21T06:54:23;9.68;;;2.58;;
80320;SDS011;69633;47.066;15.450;2024-02-21T06:56:48;5.85;;;2.40;;
80320;SDS011;69633;47.066;15.450;2024-02-21T06:59:14;5.47;;;2.35;;
80320;SDS011;69633;47.066;15.450;2024-02-21T07:01:44;5.85;;;2.83;;
80320;SDS011;69633;47.066;15.450;2024-02-21T07:04:14;8.43;;;2.70;;
80320;SDS011;69633;47.066;15.450;2024-02-21T07:06:41;9.98;;;2.95;;
80320;SDS011;69633;47.066;15.450;2024-02-21T07:09:06;8.50;;;2.45;;
80320;SDS011;69633;47.066;15.450;2024-02-21T07:11:31;6.15;;;2.80;;
80320;SDS011;69633;47.066;15.450;2024-02-21T07:13:57;5.35;;;2.40;;
80320;SDS011;69633;47.066;15.450;2024-02-21T07:16:22;3.72;;;1.90;;
80320;SDS011;69633;47.066;15.450;2024-02-21T07:18:48;7.35;;;2.30;;
80320;SDS011;69633;47.066;15.450;2024-02-21T07:21:14;8.32;;;2.60;;
80320;SDS011;69633;47.066;15.450;2024-02-21T07:23:41;4.88;;;2.38;;
80320;SDS011;69633;47.066;15.450;2024-02-21T07:26:07;5.40;;;2.47;;
80320;SDS011;69633;47.066;15.450;2024-02-21T07:28:33;6.93;;;2.70;;
80320;SDS011;69633;47.066;15.450;2024-02-21T07:31:08;7.38;;;2.65;;
80320;SDS011;69633;47.066;15.450;2024-02-21T07:34:11;12.52;;;3.00;;
80320;SDS011;69633;47.066;15.450;2024-02-21T07:36:43;8.60;;;2.72;;
80320;SDS011;69633;47.066;15.450;2024-02-21T07:39:10;6.43;;;2.65;;
80320;SDS011;69633;47.066;15.450;2024-02-21T07:41:46;7.97;;;2.55;;
80320;SDS011;69633;47.066;15.450;2024-02-21T07:44:19;8.90;;;2.15;;
80320;SDS011;69633;47.066;15.450;2024-02-21T07:47:01;6.35;;;2.45;;
80320;SDS011;69633;47.066;15.450;2024-02-21T07:49:30;10.23;;;2.85;;
80320;SDS011;69633;47.066;15.450;2024-02-21T07:52:05;6.93;;;2.38;;
80320;SDS011;69633;47.066;15.450;2024-02-21T07:54:30;4.68;;;2.17;;
80320;SDS011;69633;47.066;15.450;2024-02-21T07:56:56;6.53;;;2.28;;
80320;SDS011;69633;47.066;15.450;2024-02-21T07:59:21;6.90;;;2.10;;
80320;SDS011;69633;47.066;15.450;2024-02-21T08:01:46;7.90;;;2.33;;
80320;SDS011;69633;47.066;15.450;2024-02-21T08:04:12;5.35;;;2.40;;
80320;SDS011;69633;47.066;15.450;2024-02-21T08:06:37;8.55;;;2.70;;
80320;SDS011;69633;47.066;15.450;2024-02-21T08:09:03;9.55;;;2.80;;
80320;SDS011;69633;47.066;15.450;2024-02-21T08:11:28;8.68;;;3.25;;
80320;SDS011;69633;47.066;15.450;2024-02-21T08:13:54;6.32;;;2.05;;
80320;SDS011;69633;47.066;15.450;2024-02-21T08:16:20;5.82;;;2.60;;
80320;SDS011;69633;47.066;15.450;2024-02-21T08:18:46;6.38;;;2.42;;
80320;SDS011;69633;47.066;15.450;2024-02-21T08:21:11;10.68;;;2.88;;
80320;SDS011;69633;47.066;15.450;2024-02-21T08:23:36;6.32;;;2.10;;
80320;SDS011;69633;47.066;15.450;2024-02-21T08:26:05;5.72;;;1.95;;
80320;SDS011;69633;47.066;15.450;2024-02-21T08:28:31;4.70;;;1.77;;
80320;SDS011;69633;47.066;15.450;2024-02-21T08:30:57;4.03;;;1.90;;
80320;SDS011;69633;47.066;15.450;2024-02-21T08:33:22;5.30;;;1.90;;
80320;SDS011;69633;47.066;15.450;2024-02-21T08:36:03;5.65;;;1.77;;
80320;SDS011;69633;47.066;15.450;2024-02-21T08:38:30;6.10;;;2.05;;
80320;SDS011;69633;47.066;15.450;2024-02-21T08:40:56;7.00;;;2.08;;
80320;SDS011;69633;47.066;15.450;2024-02-21T08:43:23;10.75;;;1.85;;
80320;SDS011;69633;47.066;15.450;2024-02-21T08:45:48;5.22;;;2.22;;
80320;SDS011;69633;47.066;15.450;2024-02-21T08:48:14;4.28;;;2.30;;
80320;SDS011;69633;47.066;15.450;2024-02-21T08:50:41;5.82;;;1.88;;
80320;SDS011;69633;47.066;15.450;2024-02-21T08:53:07;4.60;;;2.20;;
80320;SDS011;69633;47.066;15.450;2024-02-21T08:55:33;4.43;;;2.13;;
80320;SDS011;69633;47.066;15.450;2024-02-21T08:58:00;7.32;;;2.58;;
80320;SDS011;69633;47.066;15.450;2024-02-21T09:00:26;4.75;;;2.17;;
80320;SDS011;69633;47.066;15.450;2024-02-21T09:02:52;4.22;;;2.38;;
80320;SDS011;69633;47.066;15.450;2024-02-21T09:05:17;6.78;;;2.72;;
80320;SDS011;69633;47.066;15.450;2024-02-21T09:07:44;5.72;;;2.50;;
80320;SDS011;69633;47.066;15.450;2024-02-21T09:10:09;6.32;;;2.83;;
80320;SDS011;69633;47.066;15.450;2024-02-21T09:12:34;6.85;;;2.33;;
80320;SDS011;69633;47.066;15.450;2024-02-21T09:15:00;5.78;;;2.05;;
80320;SDS011;69633;47.066;15.450;2024-02-21T09:17:25;5.80;;;2.30;;
80320;SDS011;69633;47.066;15.450;2024-02-21T09:19:54;13.27;;;2.95;;
80320;SDS011;69633;47.066;15.450;2024-02-21T09:22:21;4.95;;;1.92;;
80320;SDS011;69633;47.066;15.450;2024-02-21T09:24:46;5.80;;;1.92;;
80320;SDS011;69633;47.066;15.450;2024-02-21T09:27:13;4.68;;;2.10;;
80320;SDS011;69633;47.066;15.450;2024-02-21T09:29:38;5.80;;;2.10;;
80320;SDS011;69633;47.066;15.450;2024-02-21T09:32:04;8.57;;;2.22;;
80320;SDS011;69633;47.066;15.450;2024-02-21T09:34:30;6.15;;;2.00;;
80320;SDS011;69633;47.066;15.450;2024-02-21T09:36:55;4.72;;;1.80;;
80320;SDS011;69633;47.066;15.450;2024-02-21T09:39:21;5.72;;;2.60;;
80320;SDS011;69633;47.066;15.450;2024-02-21T09:41:59;5.47;;;2.42;;
80320;SDS011;69633;47.066;15.450;2024-02-21T09:44:33;4.97;;;1.80;;
80320;SDS011;69633;47.066;15.450;2024-02-21T09:47:04;3.88;;;1.98;;
80320;SDS011;69633;47.066;15.450;2024-02-21T09:49:36;4.25;;;1.77;;
80320;SDS011;69633;47.066;15.450;2024-02-21T09:52:07;5.25;;;2.22;;
80320;SDS011;69633;47.066;15.450;2024-02-21T09:54:33;6.75;;;2.45;;
80320;SDS011;69633;47.066;15.450;2024-02-21T09:56:59;4.70;;;1.52;;
80320;SDS011;69633;47.066;15.450;2024-02-21T09:59:26;4.55;;;1.90;;
80320;SDS011;69633;47.066;15.450;2024-02-21T10:01:52;6.05;;;2.08;;
80320;SDS011;69633;47.066;15.450;2024-02-21T10:04:20;7.38;;;2.10;;
80320;SDS011;69633;47.066;15.450;2024-02-21T10:06:46;5.00;;;1.75;;
80320;SDS011;69633;47.066;15.450;2024-02-21T10:09:27;4.43;;;2.28;;
80320;SDS011;69633;47.066;15.450;2024-02-21T10:11:53;4.97;;;1.80;;
80320;SDS011;69633;47.066;15.450;2024-02-21T10:14:20;4.43;;;1.70;;
80320;SDS011;69633;47.066;15.450;2024-02-21T10:16:56;3.28;;;1.80;;
80320;SDS011;69633;47.066;15.450;2024-02-21T10:19:25;3.67;;;1.45;;
80320;SDS011;69633;47.066;15.450;2024-02-21T10:22:09;3.95;;;1.80;;
80320;SDS011;69633;47.066;15.450;2024-02-21T10:24:35;3.38;;;1.65;;
80320;SDS011;69633;47.066;15.450;2024-02-21T10:27:03;5.55;;;1.90;;
80320;SDS011;69633;47.066;15.450;2024-02-21T10:29:30;4.78;;;1.60;;
80320;SDS011;69633;47.066;15.450;2024-02-21T10:32:12;5.43;;;2.05;;
80320;SDS011;69633;47.066;15.450;2024-02-21T10:34:39;4.63;;;2.33;;
80320;SDS011;69633;47.066;15.450;2024-02-21T10:37:09;4.28;;;1.83;;
80320;SDS011;69633;47.066;15.450;2024-02-21T10:39:39;5.22;;;1.70;;
80320;SDS011;69633;47.066;15.450;2024-02-21T10:42:05;7.22;;;1.70;;
80320;SDS011;69633;47.066;15.450;2024-02-21T10:44:31;5.10;;;1.90;;
80320;SDS011;69633;47.066;15.450;2024-02-21T10:46:58;5.25;;;1.63;;
80320;SDS011;69633;47.066;15.450;2024-02-21T10:49:26;3.50;;;1.90;;
80320;SDS011;69633;47.066;15.450;2024-02-21T10:52:02;5.00;;;1.80;;
80320;SDS011;69633;47.066;15.450;2024-02-21T10:56:59;3.88;;;1.25;;
80320;SDS011;69633;47.066;15.450;2024-02-21T10:59:27;6.50;;;1.92;;
80320;SDS011;69633;47.066;15.450;2024-02-21T11:01:56;5.25;;;1.77;;
80320;SDS011;69633;47.066;15.450;2024-02-21T11:04:23;6.05;;;2.17;;
80320;SDS011;69633;47.066;15.450;2024-02-21T11:06:50;5.03;;;1.73;;
80320;SDS011;69633;47.066;15.450;2024-02-21T11:09:16;5.30;;;1.63;;
80320;SDS011;69633;47.066;15.450;2024-02-21T11:11:43;5.07;;;1.73;;
80320;SDS011;69633;47.066;15.450;2024-02-21T11:14:19;3.92;;;1.67;;
80320;SDS011;69633;47.066;15.450;2024-02-21T11:16:46;3.90;;;1.90;;
80320;SDS011;69633;47.066;15.450;2024-02-21T11:19:19;4.95;;;1.83;;
80320;SDS011;69633;47.066;15.450;2024-02-21T11:21:46;6.00;;;1.60;;
80320;SDS011;69633;47.066;15.450;2024-02-21T11:24:33;8.40;;;2.10;;
80320;SDS011;69633;47.066;15.450;2024-02-21T11:27:09;4.63;;;1.98;;
80320;SDS011;69633;47.066;15.450;2024-02-21T11:32:10;6.85;;;2.05;;
80320;SDS011;69633;47.066;15.450;2024-02-21T11:34:39;3.08;;;1.58;;
80320;SDS011;69633;47.066;15.450;2024-02-21T11:37:14;3.45;;;1.70;;
80320;SDS011;69633;47.066;15.450;2024-02-21T11:39:43;5.60;;;2.65;;
80320;SDS011;69633;47.066;15.450;2024-02-21T11:42:09;2.13;;;1.35;;
80320;SDS011;69633;47.066;15.450;2024-02-21T11:44:36;5.38;;;1.88;;
80320;SDS011;69633;47.066;15.450;2024-02-21T11:47:07;5.57;;;1.75;;
80320;SDS011;69633;47.066;15.450;2024-02-21T11:49:36;14.18;;;5.80;;
80320;SDS011;69633;47.066;15.450;2024-02-21T11:52:04;5.10;;;2.38;;
80320;SDS011;69633;47.066;15.450;2024-02-21T11:54:30;3.55;;;1.52;;
80320;SDS011;69633;47.066;15.450;2024-02-21T11:56:56;3.97;;;1.80;;
80320;SDS011;69633;47.066;15.450;2024-02-21T11:59:22;4.93;;;1.35;;
80320;SDS011;69633;47.066;15.450;2024-02-21T12:01:48;7.47;;;1.40;;
80320;SDS011;69633;47.066;15.450;2024-02-21T12:04:14;2.97;;;1.63;;
80320;SDS011;69633;47.066;15.450;2024-02-21T12:06:43;4.57;;;1.83;;
80320;SDS011;69633;47.066;15.450;2024-02-21T12:09:09;2.83;;;1.38;;
80320;SDS011;69633;47.066;15.450;2024-02-21T12:11:35;4.15;;;1.60;;
80320;SDS011;69633;47.066;15.450;2024-02-21T12:14:01;3.05;;;1.60;;
80320;SDS011;69633;47.066;15.450;2024-02-21T12:16:29;3.58;;;1.33;;
80320;SDS011;69633;47.066;15.450;2024-02-21T12:18:56;2.63;;;1.30;;
80320;SDS011;69633;47.066;15.450;2024-02-21T12:21:25;3.13;;;1.30;;
80320;SDS011;69633;47.066;15.450;2024-02-21T12:23:54;4.57;;;1.50;;
80320;SDS011;69633;47.066;15.450;2024-02-21T12:26:20;3.55;;;1.50;;
80320;SDS011;69633;47.066;15.450;2024-02-21T12:28:47;3.00;;;1.60;;
80320;SDS011;69633;47.066;15.450;2024-02-21T12:31:12;2.97;;;1.60;;
80320;SDS011;69633;47.066;15.450;2024-02-21T12:33:38;2.35;;;1.35;;
80320;SDS011;69633;47.066;15.450;2024-02-21T12:36:04;1.38;;;1.02;;
80320;SDS011;69633;47.066;15.450;2024-02-21T12:38:30;3.25;;;1.50;;
80320;SDS011;69633;47.066;15.450;2024-02-21T12:40:56;3.20;;;1.20;;
80320;SDS011;69633;47.066;15.450;2024-02-21T12:43:22;3.92;;;1.42;;
80320;SDS011;69633;47.066;15.450;2024-02-21T12:45:48;3.00;;;1.75;;
80320;SDS011;69633;47.066;15.450;2024-02-21T12:48:15;4.65;;;1.40;;
80320;SDS011;69633;47.066;15.450;2024-02-21T12:50:42;2.70;;;1.20;;
80320;SDS011;69633;47.066;15.450;2024-02-21T12:53:14;2.80;;;1.30;;
80320;SDS011;69633;47.066;15.450;2024-02-21T12:55:40;2.97;;;1.20;;
80320;SDS011;69633;47.066;15.450;2024-02-21T12:58:06;7.00;;;1.52;;
80320;SDS011;69633;47.066;15.450;2024-02-21T13:00:32;2.85;;;1.40;;
80320;SDS011;69633;47.066;15.450;2024-02-21T13:02:58;2.17;;;1.20;;
80320;SDS011;69633;47.066;15.450;2024-02-21T13:05:23;2.63;;;1.05;;
80320;SDS011;69633;47.066;15.450;2024-02-21T13:07:49;2.33;;;1.10;;
80320;SDS011;69633;47.066;15.450;2024-02-21T13:10:14;2.30;;;1.08;;
80320;SDS011;69633;47.066;15.450;2024-02-21T13:12:40;2.15;;;1.00;;
80320;SDS011;69633;47.066;15.450;2024-02-21T13:15:06;1.95;;;1.00;;
80320;SDS011;69633;47.066;15.450;2024-02-21T13:17:31;2.05;;;1.05;;
80320;SDS011;69633;47.066;15.450;2024-02-21T13:19:58;2.15;;;1.23;;
80320;SDS011;69633;47.066;15.450;2024-02-21T13:22:23;2.67;;;1.45;;
80320;SDS011;69633;47.066;15.450;2024-02-21T13:24:51;1.90;;;1.20;;
80320;SDS011;69633;47.066;15.450;2024-02-21T13:27:18;2.40;;;1.30;;
80320;SDS011;69633;47.066;15.450;2024-02-21T13:29:43;6.22;;;1.35;;
80320;SDS011;69633;47.066;15.450;2024-02-21T13:32:08;3.00;;;1.30;;
80320;SDS011;69633;47.066;15.450;2024-02-21T13:34:34;2.63;;;1.40;;
80320;SDS011;69633;47.066;15.450;2024-02-21T13:36:59;3.33;;;0.82;;
80320;SDS011;69633;47.066;15.450;2024-02-21T13:39:26;3.15;;;1.73;;
80320;SDS011;69633;47.066;15.450;2024-02-21T13:41:52;4.28;;;1.20;;
80320;SDS011;69633;47.066;15.450;2024-02-21T13:44:17;3.53;;;1.42;;
80320;SDS011;69633;47.066;15.450;2024-02-21T13:46:43;2.72;;;1.20;;
80320;SDS011;69633;47.066;15.450;2024-02-21T13:49:08;2.53;;;1.30;;
80320;SDS011;69633;47.066;15.450;2024-02-21T13:51:34;2.67;;;1.30;;
80320;SDS011;69633;47.066;15.450;2024-02-21T13:54:02;1.80;;;1.20;;
80320;SDS011;69633;47.066;15.450;2024-02-21T13:56:29;2.33;;;1.10;;
80320;SDS011;69633;47.066;15.450;2024-02-21T13:58:55;2.47;;;1.48;;
80320;SDS011;69633;47.066;15.450;2024-02-21T14:01:21;3.15;;;1.95;;
80320;SDS011;69633;47.066;15.450;2024-02-21T14:03:46;2.92;;;1.55;;
80320;SDS011;69633;47.066;15.450;2024-02-21T14:06:12;6.03;;;1.42;;
80320;SDS011;69633;47.066;15.450;2024-02-21T14:08:37;5.50;;;1.83;;
80320;SDS011;69633;47.066;15.450;2024-02-21T14:11:04;4.07;;;1.38;;
80320;SDS011;69633;47.066;15.450;2024-02-21T14:13:32;3.00;;;1.35;;
80320;SDS011;69633;47.066;15.450;2024-02-21T14:15:57;7.20;;;1.25;;
80320;SDS011;69633;47.066;15.450;2024-02-21T14:18:23;4.93;;;1.35;;
80320;SDS011;69633;47.066;15.450;2024-02-21T14:20:48;7.25;;;2.40;;
80320;SDS011;69633;47.066;15.450;2024-02-21T14:23:15;2.38;;;1.30;;
80320;SDS011;69633;47.066;15.450;2024-02-21T14:25:41;2.47;;;1.23;;
80320;SDS011;69633;47.066;15.450;2024-02-21T14:28:07;3.33;;;1.42;;
80320;SDS011;69633;47.066;15.450;2024-02-21T14:30:34;2.85;;;1.17;;
80320;SDS011;69633;47.066;15.450;2024-02-21T14:33:00;4.82;;;1.35;;
80320;SDS011;69633;47.066;15.450;2024-02-21T14:35:25;4.35;;;1.10;;
80320;SDS011;69633;47.066;15.450;2024-02-21T14:37:52;1.95;;;0.90;;
80320;SDS011;69633;47.066;15.450;2024-02-21T14:40:24;1.75;;;0.93;;
80320;SDS011;69633;47.066;15.450;2024-02-21T14:42:49;2.03;;;0.93;;